Time;durP1;ratioP1;P1;durP2;ratioP2;P2;SDS_P1;SDS_P2;PMS_P1;PMS_P2;Temp;Humidity;BMP_temperature;BMP_pressure;BME280_temperature;BME280_humidity;BME280_pressure;Samples;Min_cycle;Max_cycle;Signal;HPM_P1;HPM_P2
2022/01/11 00:01:14;;;;;;;;;;;1.50;99.90;;;;;;5029189;28;20027;-72
2022/01/11 00:03:41;;;;;;;;;;;1.50;99.90;;;;;;5027189;28;19916;-68
2022/01/11 00:08:53;;;;;;;;;;;1.50;99.90;;;;;;5026471;28;20417;-70
2022/01/11 00:11:19;;;;;;;;;;;1.50;99.90;;;;;;5026478;28;19996;-71
2022/01/11 00:13:44;;;;;;;;;;;1.60;99.90;;;;;;5026599;28;19925;-70
2022/01/11 00:16:13;;;;;;;;;;;1.60;99.90;;;;;;5025628;28;19920;-68
2022/01/11 00:18:38;;;;;;;;;;;1.70;99.90;;;;;;5026089;28;20259;-70
2022/01/11 00:21:04;;;;;;;;;;;1.60;99.90;;;;;;5026811;28;19913;-68
2022/01/11 00:25:56;;;;;;;;;;;1.60;99.90;;;;;;5025963;28;19913;-69
2022/01/11 00:28:22;;;;;;;;;;;1.70;99.90;;;;;;5026082;28;19920;-73
2022/01/11 00:30:49;;;;;;;;;;;1.70;99.90;;;;;;5027226;28;19921;-73
2022/01/11 00:33:19;;;;;;;;;;;1.70;99.90;;;;;;5027124;28;20242;-70
2022/01/11 00:35:49;;;;;;;;;;;1.80;99.90;;;;;;5038482;28;20251;-69
2022/01/11 00:38:17;;;;;;;;;;;1.80;99.90;;;;;;5020223;28;19909;-68
2022/01/11 00:40:54;;;;;;;;;;;1.80;99.90;;;;;;5028593;28;19948;-68
2022/01/11 00:43:21;;;;;;;;;;;1.70;99.90;;;;;;5027572;28;19971;-69
2022/01/11 00:45:47;;;;;;;;;;;1.70;99.90;;;;;;5026806;28;19967;-70
2022/01/11 00:48:13;;;;;;;;;;;1.80;99.90;;;;;;5027426;28;20280;-71
2022/01/11 00:50:39;;;;;;;;;;;1.70;99.90;;;;;;5026454;28;19967;-70
2022/01/11 00:53:05;;;;;;;;;;;1.70;99.90;;;;;;5027800;28;19955;-69
2022/01/11 00:55:31;;;;;;;;;;;1.90;99.90;;;;;;5027989;28;20367;-69
2022/01/11 00:57:56;;;;;;;;;;;2.00;99.90;;;;;;5027955;28;19909;-73
2022/01/11 01:00:22;;;;;;;;;;;1.90;99.90;;;;;;5027682;28;19910;-68
2022/01/11 01:02:48;;;;;;;;;;;1.90;99.90;;;;;;5029076;28;20223;-70
2022/01/11 01:05:17;;;;;;;;;;;1.90;99.90;;;;;;5030359;28;19913;-70
2022/01/11 01:07:43;;;;;;;;;;;1.90;99.90;;;;;;5027484;28;19919;-69
2022/01/11 01:10:19;;;;;;;;;;;2.00;99.90;;;;;;5046334;28;19913;-69
2022/01/11 01:12:44;;;;;;;;;;;2.00;99.90;;;;;;5046414;28;19913;-68
2022/01/11 01:15:10;;;;;;;;;;;1.80;99.90;;;;;;5044183;28;19917;-69
2022/01/11 01:17:35;;;;;;;;;;;1.90;99.90;;;;;;5038217;28;19917;-71
2022/01/11 01:20:01;;;;;;;;;;;1.90;99.90;;;;;;5032231;28;19959;-70
2022/01/11 01:22:26;;;;;;;;;;;1.90;99.90;;;;;;5029557;28;19921;-69
2022/01/11 01:24:52;;;;;;;;;;;1.90;99.90;;;;;;5028952;28;20331;-69
2022/01/11 01:27:17;;;;;;;;;;;1.80;99.90;;;;;;5029399;28;19916;-69
2022/01/11 01:29:43;;;;;;;;;;;1.80;99.90;;;;;;5026362;28;19925;-68
2022/01/11 01:32:08;;;;;;;;;;;1.80;99.90;;;;;;5026176;28;19909;-69
2022/01/11 01:34:34;;;;;;;;;;;1.80;99.90;;;;;;5025260;28;19910;-69
2022/01/11 01:36:59;;;;;;;;;;;1.90;99.90;;;;;;5025807;28;19915;-69
2022/01/11 01:39:25;;;;;;;;;;;1.90;99.90;;;;;;5024933;28;20244;-69
2022/01/11 01:41:51;;;;;;;;;;;1.90;99.90;;;;;;5024604;28;20147;-69
2022/01/11 01:44:16;;;;;;;;;;;1.80;99.90;;;;;;5007723;28;19913;-70
2022/01/11 01:46:42;;;;;;;;;;;1.70;99.90;;;;;;5025311;28;20266;-69
2022/01/11 01:49:10;;;;;;;;;;;1.70;99.90;;;;;;5025134;28;20007;-69
2022/01/11 01:51:35;;;;;;;;;;;1.70;99.90;;;;;;5024873;28;19959;-69
2022/01/11 01:54:01;;;;;;;;;;;1.80;99.90;;;;;;5024676;28;19913;-69
2022/01/11 01:56:27;;;;;;;;;;;1.80;99.90;;;;;;5025961;28;19917;-68
2022/01/11 01:58:53;;;;;;;;;;;1.90;99.90;;;;;;5024660;28;19916;-69
2022/01/11 02:01:19;;;;;;;;;;;2.00;99.90;;;;;;5016556;28;19999;-68
2022/01/11 02:03:44;;;;;;;;;;;1.90;99.90;;;;;;5023574;28;20267;-70
2022/01/11 02:06:15;;;;;;;;;;;1.80;99.90;;;;;;5023705;28;20238;-70
2022/01/11 02:08:42;;;;;;;;;;;1.90;99.90;;;;;;5023821;28;19947;-68
2022/01/11 02:11:07;;;;;;;;;;;1.90;99.90;;;;;;5022598;28;19963;-69
2022/01/11 02:13:33;;;;;;;;;;;1.80;99.90;;;;;;5024472;28;19945;-70
2022/01/11 02:15:59;;;;;;;;;;;1.80;99.90;;;;;;5024046;28;20027;-70
2022/01/11 02:18:26;;;;;;;;;;;1.70;99.90;;;;;;5019426;28;19921;-69
2022/01/11 02:20:55;;;;;;;;;;;1.70;99.90;;;;;;5037369;28;19913;-69
2022/01/11 02:23:20;;;;;;;;;;;1.70;99.90;;;;;;5011948;28;19909;-69
2022/01/11 02:25:46;;;;;;;;;;;1.90;99.90;;;;;;5026439;28;20365;-68
2022/01/11 02:28:13;;;;;;;;;;;2.00;99.90;;;;;;5043551;28;20378;-72
2022/01/11 02:30:39;;;;;;;;;;;2.00;99.90;;;;;;5048197;28;19924;-68
2022/01/11 02:33:10;;;;;;;;;;;2.00;99.90;;;;;;5033434;28;20374;-69
2022/01/11 02:35:35;;;;;;;;;;;2.00;99.90;;;;;;5025117;28;19913;-70
2022/01/11 02:38:01;;;;;;;;;;;2.00;99.90;;;;;;5025092;28;20327;-70
2022/01/11 02:40:26;;;;;;;;;;;2.00;99.90;;;;;;5022924;28;19925;-68
2022/01/11 02:42:52;;;;;;;;;;;1.80;99.90;;;;;;5025311;28;19976;-68
2022/01/11 02:45:19;;;;;;;;;;;1.80;99.90;;;;;;5008385;28;19916;-69
2022/01/11 02:47:46;;;;;;;;;;;1.80;99.90;;;;;;5025844;28;20591;-68
2022/01/11 02:50:12;;;;;;;;;;;1.80;99.90;;;;;;5024489;28;19910;-69
2022/01/11 02:52:37;;;;;;;;;;;1.80;99.90;;;;;;5024879;28;20302;-68
2022/01/11 02:55:06;;;;;;;;;;;1.90;99.90;;;;;;5026947;28;19909;-69
2022/01/11 02:57:32;;;;;;;;;;;1.80;99.90;;;;;;5025258;28;19909;-66
2022/01/11 02:59:57;;;;;;;;;;;1.80;99.90;;;;;;5026344;28;20336;-69
2022/01/11 03:02:23;;;;;;;;;;;1.80;99.90;;;;;;5029551;28;19913;-68
2022/01/11 03:04:48;;;;;;;;;;;1.90;99.90;;;;;;5025907;28;19917;-69
2022/01/11 03:07:18;;;;;;;;;;;1.90;99.90;;;;;;5023627;28;20575;-74
2022/01/11 03:10:00;;;;;;;;;;;1.80;99.90;;;;;;5023603;28;19997;-68
2022/01/11 03:12:25;;;;;;;;;;;1.80;99.90;;;;;;5026050;28;20012;-68
2022/01/11 03:14:51;;;;;;;;;;;1.90;99.90;;;;;;5025222;28;20070;-69
2022/01/11 03:17:16;;;;;;;;;;;1.90;99.90;;;;;;5026210;28;19959;-69
2022/01/11 03:19:42;;;;;;;;;;;2.00;99.90;;;;;;5025203;28;19909;-69
2022/01/11 03:22:07;;;;;;;;;;;2.00;99.90;;;;;;5040392;28;20293;-68
2022/01/11 03:24:33;;;;;;;;;;;1.80;99.90;;;;;;5039235;28;20390;-69
2022/01/11 03:26:58;;;;;;;;;;;1.90;99.90;;;;;;5026519;28;19913;-69
2022/01/11 03:29:23;;;;;;;;;;;1.90;99.90;;;;;;5010421;28;19925;-68
2022/01/11 03:31:49;;;;;;;;;;;1.90;99.90;;;;;;5025152;28;19983;-69
2022/01/11 03:34:19;;;;;;;;;;;2.00;99.90;;;;;;5028752;28;20121;-68
2022/01/11 03:36:47;;;;;;;;;;;2.00;99.90;;;;;;5039425;28;20001;-70
2022/01/11 03:39:13;;;;;;;;;;;2.10;99.90;;;;;;5049363;28;19909;-68
2022/01/11 03:41:38;;;;;;;;;;;2.00;99.90;;;;;;5033191;28;19964;-70
2022/01/11 03:44:04;;;;;;;;;;;1.90;99.90;;;;;;5027726;28;19909;-70
2022/01/11 03:46:29;;;;;;;;;;;1.90;99.90;;;;;;5021589;28;19913;-68
2022/01/11 03:48:55;;;;;;;;;;;1.90;99.90;;;;;;5033085;28;20115;-70
2022/01/11 03:51:20;;;;;;;;;;;1.90;99.90;;;;;;5045656;28;20022;-69
2022/01/11 03:53:55;;;;;;;;;;;1.90;99.90;;;;;;5049719;28;20358;-70
2022/01/11 03:56:23;;;;;;;;;;;1.80;99.90;;;;;;5030197;28;19912;-67
2022/01/11 03:58:50;;;;;;;;;;;1.80;99.90;;;;;;5028082;28;19952;-69
2022/01/11 04:01:16;;;;;;;;;;;1.80;99.90;;;;;;5030006;28;19924;-70
2022/01/11 04:03:41;;;;;;;;;;;1.80;99.90;;;;;;5038547;28;19913;-73
2022/01/11 04:06:07;;;;;;;;;;;1.80;99.90;;;;;;5027680;28;20168;-69
2022/01/11 04:08:32;;;;;;;;;;;1.70;99.90;;;;;;5026898;28;19960;-71
2022/01/11 04:10:58;;;;;;;;;;;1.70;99.90;;;;;;5027384;28;19932;-69
2022/01/11 04:13:23;;;;;;;;;;;1.70;99.90;;;;;;5029455;28;19967;-69
2022/01/11 04:15:49;;;;;;;;;;;1.70;99.90;;;;;;5040027;28;20171;-67
2022/01/11 04:18:14;;;;;;;;;;;1.70;99.90;;;;;;5027906;28;19916;-69
2022/01/11 04:20:40;;;;;;;;;;;1.60;99.90;;;;;;5027329;28;19939;-69
2022/01/11 04:23:09;;;;;;;;;;;1.60;99.90;;;;;;5045723;28;19916;-70
2022/01/11 04:25:34;;;;;;;;;;;1.60;99.90;;;;;;5032607;28;20047;-68
2022/01/11 04:28:01;;;;;;;;;;;1.50;99.90;;;;;;5028445;28;19951;-72
2022/01/11 04:30:26;;;;;;;;;;;1.60;99.90;;;;;;5036531;28;20403;-68
2022/01/11 04:32:52;;;;;;;;;;;1.60;99.90;;;;;;5026277;28;19917;-69
2022/01/11 04:35:17;;;;;;;;;;;1.60;99.90;;;;;;5046022;28;19967;-69
2022/01/11 04:37:44;;;;;;;;;;;1.60;99.90;;;;;;5027324;28;20024;-68
2022/01/11 04:40:10;;;;;;;;;;;1.60;99.90;;;;;;5027376;28;19913;-68
2022/01/11 04:42:35;;;;;;;;;;;1.60;99.90;;;;;;5031392;28;20223;-69
2022/01/11 04:45:01;;;;;;;;;;;1.60;99.90;;;;;;5047003;28;20433;-71
2022/01/11 04:47:27;;;;;;;;;;;1.50;99.90;;;;;;5020418;28;19917;-69
2022/01/11 04:49:52;;;;;;;;;;;1.50;99.90;;;;;;5009626;28;19951;-67
2022/01/11 04:52:18;;;;;;;;;;;1.60;99.90;;;;;;5036852;28;19913;-71
2022/01/11 04:54:43;;;;;;;;;;;1.60;99.90;;;;;;5020155;28;20191;-70
2022/01/11 04:57:09;;;;;;;;;;;1.50;99.90;;;;;;5027417;28;19954;-68
2022/01/11 04:59:35;;;;;;;;;;;1.50;99.90;;;;;;5026706;28;19909;-69
2022/01/11 05:02:00;;;;;;;;;;;1.50;99.90;;;;;;5026947;28;20390;-68
2022/01/11 05:04:25;;;;;;;;;;;1.50;99.90;;;;;;5025723;28;19956;-69
2022/01/11 05:06:51;;;;;;;;;;;1.60;99.90;;;;;;5026637;28;20374;-69
2022/01/11 05:09:16;;;;;;;;;;;1.70;99.90;;;;;;5009379;28;19924;-69
2022/01/11 05:11:42;;;;;;;;;;;1.70;99.90;;;;;;5026711;28;19909;-66
2022/01/11 05:14:07;;;;;;;;;;;1.60;99.90;;;;;;4988900;28;20434;-73
2022/01/11 05:16:33;;;;;;;;;;;1.60;99.90;;;;;;5006822;28;19944;-68
2022/01/11 05:18:58;;;;;;;;;;;1.60;99.90;;;;;;5007487;28;19969;-69
2022/01/11 05:21:24;;;;;;;;;;;1.60;99.90;;;;;;5032692;28;19913;-69
2022/01/11 05:23:49;;;;;;;;;;;1.70;99.90;;;;;;5046178;28;19939;-67
2022/01/11 05:26:15;;;;;;;;;;;1.60;99.90;;;;;;5017319;28;19913;-67
2022/01/11 05:28:40;;;;;;;;;;;1.60;99.90;;;;;;5016681;28;20385;-71
2022/01/11 05:31:06;;;;;;;;;;;1.60;99.90;;;;;;5040971;28;19949;-69
2022/01/11 05:33:31;;;;;;;;;;;1.50;99.90;;;;;;5026603;28;19909;-69
2022/01/11 05:35:57;;;;;;;;;;;1.50;99.90;;;;;;5028854;28;19909;-70
2022/01/11 05:38:22;;;;;;;;;;;1.50;99.90;;;;;;5033770;28;19913;-69
2022/01/11 05:40:48;;;;;;;;;;;1.40;99.90;;;;;;5039148;28;20137;-69
2022/01/11 05:43:14;;;;;;;;;;;1.30;99.90;;;;;;5038982;28;20290;-67
2022/01/11 05:45:40;;;;;;;;;;;1.30;99.90;;;;;;5032523;28;19913;-69
2022/01/11 05:48:06;;;;;;;;;;;1.30;99.90;;;;;;5033121;28;20386;-70
2022/01/11 05:50:32;;;;;;;;;;;1.40;99.90;;;;;;5027507;28;20261;-70
2022/01/11 05:52:57;;;;;;;;;;;1.40;99.90;;;;;;5027502;28;20278;-69
2022/01/11 05:55:23;;;;;;;;;;;1.40;99.90;;;;;;5026165;28;20364;-69
2022/01/11 05:57:48;;;;;;;;;;;1.50;99.90;;;;;;5025428;28;19959;-68
2022/01/11 06:00:15;;;;;;;;;;;1.50;99.90;;;;;;5025151;28;19913;-69
2022/01/11 06:02:44;;;;;;;;;;;1.60;99.90;;;;;;5008965;28;19923;-68
2022/01/11 06:05:09;;;;;;;;;;;1.50;99.90;;;;;;4996630;28;19921;-69
2022/01/11 06:07:37;;;;;;;;;;;1.40;99.90;;;;;;5039244;28;19913;-68
2022/01/11 06:10:03;;;;;;;;;;;1.50;99.90;;;;;;5041104;28;20500;-70
2022/01/11 06:12:28;;;;;;;;;;;1.40;99.90;;;;;;5042665;28;20409;-67
2022/01/11 06:14:55;;;;;;;;;;;1.40;99.90;;;;;;5041257;28;19921;-68
2022/01/11 06:17:20;;;;;;;;;;;1.40;99.90;;;;;;5029022;28;19913;-68
2022/01/11 06:19:45;;;;;;;;;;;1.40;99.90;;;;;;5031422;28;20023;-69
2022/01/11 06:22:11;;;;;;;;;;;1.40;99.90;;;;;;5031026;28;19909;-68
2022/01/11 06:24:36;;;;;;;;;;;1.40;99.90;;;;;;5034807;28;20281;-69
2022/01/11 06:27:02;;;;;;;;;;;1.40;99.90;;;;;;5033811;28;20434;-70
2022/01/11 06:29:27;;;;;;;;;;;1.40;99.90;;;;;;5055131;28;19924;-70
2022/01/11 06:31:53;;;;;;;;;;;1.30;99.90;;;;;;5039577;28;19959;-67
2022/01/11 06:34:18;;;;;;;;;;;1.30;99.90;;;;;;5039899;28;20262;-70
2022/01/11 06:36:44;;;;;;;;;;;1.30;99.90;;;;;;5006404;28;19958;-68
2022/01/11 06:39:09;;;;;;;;;;;1.20;99.90;;;;;;5018484;28;19913;-70
2022/01/11 06:41:35;;;;;;;;;;;1.20;99.90;;;;;;5024751;28;19917;-69
2022/01/11 06:44:01;;;;;;;;;;;1.30;99.90;;;;;;5017289;28;20371;-68
2022/01/11 06:46:26;;;;;;;;;;;1.30;99.90;;;;;;5017862;28;19925;-68
2022/01/11 06:48:52;;;;;;;;;;;1.40;99.90;;;;;;5012942;28;19921;-70
2022/01/11 06:51:18;;;;;;;;;;;1.40;99.90;;;;;;5015965;28;19914;-68
2022/01/11 06:53:44;;;;;;;;;;;1.40;99.90;;;;;;5014308;28;19964;-69
2022/01/11 06:56:10;;;;;;;;;;;1.40;99.90;;;;;;5015011;28;19941;-71
2022/01/11 06:58:35;;;;;;;;;;;1.40;99.90;;;;;;5017431;28;19925;-69
2022/01/11 07:01:01;;;;;;;;;;;1.40;99.90;;;;;;5022091;28;20386;-69
2022/01/11 07:03:28;;;;;;;;;;;1.40;99.90;;;;;;5033973;28;19917;-68
2022/01/11 07:05:53;;;;;;;;;;;1.40;99.90;;;;;;5001769;28;19913;-69
2022/01/11 07:08:19;;;;;;;;;;;1.40;99.90;;;;;;5011163;28;19920;-70
2022/01/11 07:10:44;;;;;;;;;;;1.40;99.90;;;;;;5018149;28;19913;-69
2022/01/11 07:13:10;;;;;;;;;;;1.40;99.90;;;;;;5019040;28;20366;-68
2022/01/11 07:15:35;;;;;;;;;;;1.40;99.90;;;;;;5014660;28;19917;-72
2022/01/11 07:18:07;;;;;;;;;;;1.50;99.90;;;;;;5013042;28;19909;-73
2022/01/11 07:20:33;;;;;;;;;;;1.40;99.90;;;;;;5023104;28;20175;-72
2022/01/11 07:22:59;;;;;;;;;;;1.40;99.90;;;;;;5023285;28;19909;-72
2022/01/11 07:25:25;;;;;;;;;;;1.40;99.90;;;;;;5019219;28;19909;-71
2022/01/11 07:27:50;;;;;;;;;;;1.40;99.90;;;;;;5025033;28;20412;-68
2022/01/11 07:30:16;;;;;;;;;;;1.50;99.90;;;;;;5019025;28;19917;-73
2022/01/11 07:32:41;;;;;;;;;;;1.50;99.90;;;;;;5015300;28;20011;-73
2022/01/11 07:35:07;;;;;;;;;;;1.50;99.90;;;;;;5024843;28;20041;-68
2022/01/11 07:37:32;;;;;;;;;;;1.50;99.90;;;;;;5025241;28;20357;-71
2022/01/11 07:39:58;;;;;;;;;;;1.50;99.90;;;;;;5017315;28;19917;-71
2022/01/11 07:42:23;;;;;;;;;;;1.50;99.90;;;;;;5029936;28;19913;-70
2022/01/11 07:44:51;;;;;;;;;;;1.50;99.90;;;;;;5029791;28;20452;-69
2022/01/11 07:47:17;;;;;;;;;;;1.50;99.90;;;;;;5018170;28;19913;-71
2022/01/11 07:49:43;;;;;;;;;;;1.50;99.90;;;;;;5018294;28;19928;-72
2022/01/11 07:52:08;;;;;;;;;;;1.50;99.90;;;;;;5018427;28;19910;-70
2022/01/11 07:54:34;;;;;;;;;;;1.50;99.90;;;;;;5018510;28;19973;-68
2022/01/11 07:56:59;;;;;;;;;;;1.50;99.90;;;;;;5023786;28;19909;-67
2022/01/11 07:59:25;;;;;;;;;;;1.50;99.90;;;;;;5016760;28;20004;-68
2022/01/11 08:01:50;;;;;;;;;;;1.50;99.90;;;;;;5019489;28;19917;-72
2022/01/11 08:04:16;;;;;;;;;;;1.50;99.90;;;;;;5008844;28;19951;-69
2022/01/11 08:06:41;;;;;;;;;;;1.60;99.90;;;;;;5029696;28;19917;-69
2022/01/11 08:09:10;;;;;;;;;;;1.60;99.90;;;;;;5025768;28;20413;-69
2022/01/11 08:11:35;;;;;;;;;;;1.70;99.90;;;;;;5030524;28;19920;-70
2022/01/11 08:14:01;;;;;;;;;;;1.60;99.90;;;;;;5050511;28;19909;-72
2022/01/11 08:16:26;;;;;;;;;;;1.70;99.90;;;;;;5049357;28;19958;-71
2022/01/11 08:18:52;;;;;;;;;;;1.60;99.90;;;;;;5049882;28;20290;-74
2022/01/11 08:21:17;;;;;;;;;;;1.70;99.90;;;;;;5049700;28;20037;-72
2022/01/11 08:23:43;;;;;;;;;;;1.70;99.90;;;;;;5050603;28;19909;-74
2022/01/11 08:26:08;;;;;;;;;;;1.70;99.90;;;;;;5056444;28;19924;-75
2022/01/11 08:28:34;;;;;;;;;;;1.70;99.90;;;;;;5037998;28;19917;-73
2022/01/11 08:31:00;;;;;;;;;;;1.80;99.90;;;;;;5019716;28;20380;-72
2022/01/11 08:33:25;;;;;;;;;;;1.90;99.90;;;;;;5029519;28;19916;-70
2022/01/11 08:35:51;;;;;;;;;;;1.90;99.90;;;;;;5030980;28;20320;-73
2022/01/11 08:38:17;;;;;;;;;;;1.80;99.90;;;;;;5030451;28;20008;-69
2022/01/11 08:40:42;;;;;;;;;;;1.90;99.90;;;;;;5029631;28;20381;-67
2022/01/11 08:43:08;;;;;;;;;;;1.90;99.90;;;;;;5017519;28;19913;-69
2022/01/11 08:45:34;;;;;;;;;;;2.00;99.90;;;;;;5035894;28;19909;-71
2022/01/11 08:47:59;;;;;;;;;;;1.90;99.90;;;;;;5011760;28;19909;-69
2022/01/11 08:50:25;;;;;;;;;;;1.90;99.90;;;;;;5028624;28;19963;-70
2022/01/11 08:52:50;;;;;;;;;;;2.00;99.90;;;;;;5031677;28;19987;-69
2022/01/11 08:55:16;;;;;;;;;;;2.00;99.90;;;;;;5011177;28;19957;-70
2022/01/11 08:57:42;;;;;;;;;;;2.10;99.90;;;;;;5013471;28;20374;-72
2022/01/11 09:00:13;;;;;;;;;;;2.10;99.90;;;;;;5010896;28;20150;-69
2022/01/11 09:02:38;;;;;;;;;;;2.10;99.90;;;;;;5042288;28;19928;-70
2022/01/11 09:05:04;;;;;;;;;;;2.10;99.90;;;;;;5034908;28;19910;-69
2022/01/11 09:07:29;;;;;;;;;;;2.20;99.90;;;;;;5014894;28;19941;-70
2022/01/11 09:09:55;;;;;;;;;;;2.20;99.90;;;;;;5039174;28;19913;-70
2022/01/11 09:12:21;;;;;;;;;;;2.10;99.90;;;;;;5037188;28;19909;-73
2022/01/11 09:14:47;;;;;;;;;;;2.20;99.90;;;;;;5043118;28;19948;-71
2022/01/11 09:17:12;;;;;;;;;;;2.10;99.90;;;;;;5032583;28;19936;-69
2022/01/11 09:19:38;;;;;;;;;;;2.20;99.90;;;;;;5021942;28;19971;-73
2022/01/11 09:22:05;;;;;;;;;;;2.20;99.90;;;;;;5028139;28;20433;-75
2022/01/11 09:24:30;;;;;;;;;;;2.20;99.90;;;;;;5022949;28;19961;-70
2022/01/11 09:26:57;;;;;;;;;;;2.30;99.90;;;;;;5030173;28;19924;-68
2022/01/11 09:29:23;;;;;;;;;;;2.30;99.90;;;;;;5033113;28;19928;-71
2022/01/11 09:31:48;;;;;;;;;;;2.40;99.90;;;;;;5039039;28;19917;-67
2022/01/11 09:34:14;;;;;;;;;;;2.40;99.90;;;;;;5027723;28;19955;-69
2022/01/11 09:36:40;;;;;;;;;;;2.40;99.90;;;;;;5027360;28;20242;-69
2022/01/11 09:39:06;;;;;;;;;;;2.40;99.90;;;;;;5025759;28;20008;-70
2022/01/11 09:41:31;;;;;;;;;;;2.40;99.90;;;;;;5019524;28;20474;-70
2022/01/11 09:43:58;;;;;;;;;;;2.50;99.90;;;;;;5026452;28;19909;-69
2022/01/11 09:46:23;;;;;;;;;;;2.60;99.90;;;;;;5027637;28;20223;-70
2022/01/11 09:48:49;;;;;;;;;;;2.60;99.90;;;;;;5031372;28;20378;-70
2022/01/11 09:51:15;;;;;;;;;;;2.70;99.90;;;;;;5020281;28;20278;-67
2022/01/11 09:53:40;;;;;;;;;;;2.60;99.90;;;;;;5005844;28;19968;-67
2022/01/11 09:56:07;;;;;;;;;;;2.60;99.90;;;;;;5038173;28;20650;-70
2022/01/11 09:58:33;;;;;;;;;;;2.70;99.90;;;;;;5028920;28;19908;-69
2022/01/11 10:00:58;;;;;;;;;;;2.70;99.90;;;;;;5046818;28;19909;-69
2022/01/11 10:03:24;;;;;;;;;;;2.80;99.90;;;;;;5047819;28;19909;-74
2022/01/11 10:05:50;;;;;;;;;;;2.80;99.90;;;;;;5047160;28;20507;-70
2022/01/11 10:08:25;;;;;;;;;;;2.80;99.90;;;;;;5044643;28;20591;-69
2022/01/11 10:10:52;;;;;;;;;;;2.70;99.90;;;;;;5019276;28;19917;-68
2022/01/11 10:13:28;;;;;;;;;;;2.70;99.90;;;;;;5027401;28;20016;-70
2022/01/11 10:15:54;;;;;;;;;;;2.70;99.90;;;;;;5027578;28;19909;-67
2022/01/11 10:18:35;;;;;;;;;;;2.80;99.90;;;;;;5025390;28;19932;-68
2022/01/11 10:21:04;;;;;;;;;;;2.80;99.90;;;;;;5026145;28;19909;-71
2022/01/11 10:23:33;;;;;;;;;;;2.80;99.90;;;;;;5008982;28;19909;-69
2022/01/11 10:25:59;;;;;;;;;;;2.80;99.90;;;;;;5009373;28;19979;-71
2022/01/11 10:28:36;;;;;;;;;;;2.70;99.90;;;;;;5013636;28;19930;-70
2022/01/11 10:31:02;;;;;;;;;;;2.80;99.90;;;;;;5000926;28;20291;-68
2022/01/11 10:33:27;;;;;;;;;;;2.90;99.90;;;;;;5021026;28;19924;-68
2022/01/11 10:35:53;;;;;;;;;;;2.80;99.90;;;;;;5018606;28;19918;-69
2022/01/11 10:38:26;;;;;;;;;;;2.90;99.90;;;;;;5010047;28;19913;-70
2022/01/11 10:40:52;;;;;;;;;;;2.90;99.90;;;;;;5027572;28;19975;-69
2022/01/11 10:43:18;;;;;;;;;;;2.90;99.90;;;;;;5008841;28;20346;-68
2022/01/11 10:45:46;;;;;;;;;;;3.00;99.90;;;;;;5011038;28;19959;-71
2022/01/11 10:48:13;;;;;;;;;;;3.10;99.90;;;;;;5027855;28;19909;-69
2022/01/11 10:50:43;;;;;;;;;;;3.20;99.90;;;;;;5027177;28;19910;-69
2022/01/11 10:53:19;;;;;;;;;;;3.30;99.90;;;;;;5029875;28;19913;-71
2022/01/11 10:55:49;;;;;;;;;;;3.40;99.90;;;;;;5018105;28;20115;-70
2022/01/11 10:58:14;;;;;;;;;;;3.50;99.90;;;;;;5018331;28;20000;-68
2022/01/11 11:00:44;;;;;;;;;;;3.70;99.90;;;;;;5023966;28;20318;-69
2022/01/11 11:03:14;;;;;;;;;;;4.00;99.90;;;;;;5030329;28;19985;-69
2022/01/11 11:05:44;;;;;;;;;;;4.00;99.90;;;;;;5030715;28;19917;-71
2022/01/11 11:08:17;;;;;;;;;;;4.10;99.90;;;;;;5029687;28;19913;-71
2022/01/11 11:10:44;;;;;;;;;;;4.30;99.90;;;;;;5021925;28;19959;-67
2022/01/11 11:13:15;;;;;;;;;;;4.40;99.90;;;;;;5012477;28;20356;-70
2022/01/11 11:15:40;;;;;;;;;;;4.40;99.90;;;;;;5030573;28;19909;-69
2022/01/11 11:18:19;;;;;;;;;;;4.40;99.90;;;;;;5031164;28;20377;-70
2022/01/11 11:20:45;;;;;;;;;;;4.30;99.90;;;;;;5014515;28;20000;-67
2022/01/11 11:23:12;;;;;;;;;;;4.40;99.90;;;;;;5030110;28;19992;-70
2022/01/11 11:25:39;;;;;;;;;;;4.50;99.90;;;;;;5029945;28;19913;-70
2022/01/11 11:28:05;;;;;;;;;;;4.50;99.90;;;;;;5030078;28;19916;-70
2022/01/11 11:30:31;;;;;;;;;;;4.60;99.90;;;;;;5028934;28;19917;-69
2022/01/11 11:32:57;;;;;;;;;;;4.60;99.90;;;;;;5021394;28;19913;-67
2022/01/11 11:35:24;;;;;;;;;;;4.80;99.90;;;;;;5041291;28;20297;-68
2022/01/11 11:37:57;;;;;;;;;;;4.70;99.90;;;;;;5042195;28;19921;-69
2022/01/11 11:40:24;;;;;;;;;;;4.80;99.90;;;;;;5033804;28;19920;-69
2022/01/11 11:43:10;;;;;;;;;;;4.80;99.90;;;;;;5033927;28;20122;-68
2022/01/11 11:45:36;;;;;;;;;;;4.90;99.90;;;;;;5048170;28;19920;-68
2022/01/11 11:48:06;;;;;;;;;;;4.80;99.90;;;;;;5040426;28;19909;-69
2022/01/11 11:50:32;;;;;;;;;;;4.90;99.90;;;;;;5015832;28;20433;-69
2022/01/11 11:52:58;;;;;;;;;;;4.90;99.90;;;;;;5031797;28;19913;-70
2022/01/11 11:55:24;;;;;;;;;;;4.90;99.90;;;;;;5013119;28;19919;-71
2022/01/11 11:57:51;;;;;;;;;;;4.90;99.90;;;;;;5029381;28;19909;-71
2022/01/11 12:00:20;;;;;;;;;;;4.90;99.90;;;;;;5028376;28;20254;-69
2022/01/11 12:02:48;;;;;;;;;;;4.90;99.90;;;;;;5029084;28;19932;-69
2022/01/11 12:05:29;;;;;;;;;;;4.90;99.90;;;;;;5030464;28;19909;-70
2022/01/11 12:07:55;;;;;;;;;;;4.90;99.90;;;;;;5028003;28;20397;-69
2022/01/11 12:10:31;;;;;;;;;;;5.10;99.90;;;;;;5028637;28;19921;-70
2022/01/11 12:12:57;;;;;;;;;;;5.20;99.90;;;;;;5029207;28;19913;-70
2022/01/11 12:15:22;;;;;;;;;;;5.30;99.90;;;;;;5029794;28;19917;-70
2022/01/11 12:17:57;;;;;;;;;;;5.40;99.90;;;;;;5028258;28;19963;-71
2022/01/11 12:20:51;;;;;;;;;;;5.50;99.90;;;;;;5029015;28;19909;-69
2022/01/11 12:23:37;;;;;;;;;;;5.70;99.90;;;;;;5014156;28;19913;-69
2022/01/11 12:26:08;;;;;;;;;;;6.20;99.90;;;;;;5017944;28;19909;-72
2022/01/11 12:28:33;;;;;;;;;;;6.40;99.90;;;;;;5028572;28;19914;-69
2022/01/11 12:31:28;;;;;;;;;;;6.80;99.90;;;;;;5048943;28;19927;-70
2022/01/11 12:33:54;;;;;;;;;;;7.20;99.90;;;;;;5019606;28;19919;-70
2022/01/11 12:36:20;;;;;;;;;;;7.30;99.90;;;;;;5030940;28;20011;-69
2022/01/11 12:38:59;;;;;;;;;;;7.60;99.90;;;;;;5031918;28;19916;-71
2022/01/11 12:41:35;;;;;;;;;;;8.00;99.90;;;;;;5029783;28;19909;-72
2022/01/11 12:44:23;;;;;;;;;;;8.20;99.90;;;;;;5009261;28;19995;-71
2022/01/11 12:46:56;;;;;;;;;;;8.30;99.90;;;;;;5041092;28;19909;-68
2022/01/11 12:49:22;;;;;;;;;;;8.50;98.50;;;;;;5047212;28;19923;-71
2022/01/11 12:52:08;;;;;;;;;;;8.70;98.30;;;;;;5046667;28;19995;-72
2022/01/11 12:54:35;;;;;;;;;;;8.60;97.90;;;;;;5040155;28;19917;-70
2022/01/11 12:57:03;;;;;;;;;;;8.10;97.30;;;;;;5027515;28;19913;-72
2022/01/11 12:59:30;;;;;;;;;;;8.20;98.40;;;;;;5026816;28;19913;-67
2022/01/11 13:02:00;;;;;;;;;;;8.50;98.20;;;;;;5017088;28;19918;-72
2022/01/11 13:04:55;;;;;;;;;;;8.20;96.70;;;;;;5027567;28;19909;-70
2022/01/11 13:07:28;;;;;;;;;;;7.90;98.80;;;;;;5018373;28;20375;-70
2022/01/11 13:09:57;;;;;;;;;;;7.40;98.50;;;;;;5023911;28;19913;-69
2022/01/11 13:12:25;;;;;;;;;;;7.20;99.10;;;;;;5011691;28;20043;-70
2022/01/11 13:14:59;;;;;;;;;;;7.20;99.20;;;;;;5005347;28;20247;-69
2022/01/11 13:17:25;;;;;;;;;;;7.10;99.50;;;;;;5000463;28;19916;-70
2022/01/11 13:19:50;;;;;;;;;;;7.00;99.20;;;;;;4996959;28;19913;-68
2022/01/11 13:22:18;;;;;;;;;;;6.90;99.90;;;;;;5016281;28;20066;-69
2022/01/11 13:24:50;;;;;;;;;;;7.00;99.70;;;;;;5022299;28;19909;-68
2022/01/11 13:27:16;;;;;;;;;;;6.80;99.10;;;;;;5000671;28;19909;-70
2022/01/11 13:29:42;;;;;;;;;;;6.80;99.70;;;;;;5032004;28;19925;-69
2022/01/11 13:32:08;;;;;;;;;;;6.90;99.90;;;;;;5037228;28;19920;-70
2022/01/11 13:34:34;;;;;;;;;;;6.80;99.70;;;;;;5024044;28;19945;-71
2022/01/11 13:37:00;;;;;;;;;;;6.70;99.30;;;;;;5012323;28;19939;-70
2022/01/11 13:39:29;;;;;;;;;;;6.70;99.00;;;;;;5012158;28;19967;-71
2022/01/11 13:41:56;;;;;;;;;;;6.60;99.90;;;;;;5016409;28;19996;-74
2022/01/11 13:44:22;;;;;;;;;;;6.70;99.90;;;;;;5027415;28;19909;-71
2022/01/11 13:46:49;;;;;;;;;;;6.70;99.80;;;;;;5021515;28;19913;-70
2022/01/11 13:49:16;;;;;;;;;;;6.60;99.80;;;;;;5028136;28;20518;-70
2022/01/11 13:51:43;;;;;;;;;;;6.60;99.90;;;;;;5028393;28;19943;-70
2022/01/11 13:54:09;;;;;;;;;;;6.60;99.90;;;;;;5026231;28;19909;-72
2022/01/11 13:56:39;;;;;;;;;;;6.60;99.50;;;;;;5026048;28;19952;-69
2022/01/11 13:59:05;;;;;;;;;;;6.50;99.60;;;;;;5026352;28;19909;-72
2022/01/11 14:01:30;;;;;;;;;;;6.40;99.90;;;;;;5026711;28;19909;-70
2022/01/11 14:04:06;;;;;;;;;;;6.40;99.20;;;;;;5028363;28;19913;-72
2022/01/11 14:07:00;;;;;;;;;;;6.40;99.20;;;;;;5027121;28;20241;-71
2022/01/11 14:09:32;;;;;;;;;;;6.60;99.40;;;;;;5024185;28;20053;-72
2022/01/11 14:12:05;;;;;;;;;;;6.70;99.70;;;;;;4989177;28;19950;-70
2022/01/11 14:14:31;;;;;;;;;;;6.70;99.00;;;;;;4990373;28;19921;-70
2022/01/11 14:16:57;;;;;;;;;;;6.70;98.50;;;;;;5017126;28;19932;-70
2022/01/11 14:19:23;;;;;;;;;;;6.70;99.40;;;;;;5027582;28;19954;-70
2022/01/11 14:21:50;;;;;;;;;;;6.60;99.10;;;;;;4994959;28;20131;-73
2022/01/11 14:24:15;;;;;;;;;;;6.60;99.60;;;;;;5010889;28;19917;-71
2022/01/11 14:26:41;;;;;;;;;;;6.70;99.50;;;;;;5008930;28;19909;-70
2022/01/11 14:29:07;;;;;;;;;;;6.60;99.80;;;;;;5008484;28;20545;-70
2022/01/11 14:31:35;;;;;;;;;;;6.60;99.90;;;;;;5010506;28;19913;-68
2022/01/11 14:34:11;;;;;;;;;;;6.70;99.90;;;;;;5026604;28;19924;-71
2022/01/11 14:36:37;;;;;;;;;;;6.70;99.90;;;;;;5028313;28;19948;-70